Time;durP1;ratioP1;P1;durP2;ratioP2;P2;SDS_P1;SDS_P2;PMS_P1;PMS_P2;Temp;Humidity;BMP_temperature;BMP_pressure;BME280_temperature;BME280_humidity;BME280_pressure;Samples;Min_cycle;Max_cycle;Signal;HPM_P1;HPM_P2
2023/05/12 00:01:23;;;;;;;2.47;2.27;;;;;;;15.50;62.09;97162.69;5009450;28;20200;-71
2023/05/12 00:03:48;;;;;;;2.60;2.40;;;;;;;15.51;62.10;97163.50;5008650;28;20703;-70
2023/05/12 00:06:14;;;;;;;3.03;2.67;;;;;;;15.52;61.94;97154.59;5012738;28;20218;-70
2023/05/12 00:08:39;;;;;;;7.20;2.50;;;;;;;15.52;62.20;97155.41;5016591;28;20192;-70
2023/05/12 00:11:05;;;;;;;4.37;2.70;;;;;;;15.58;62.20;97145.91;5016953;28;20204;-69
2023/05/12 00:13:30;;;;;;;3.90;3.00;;;;;;;15.61;62.00;97153.47;5013708;28;20203;-70
2023/05/12 00:15:57;;;;;;;4.87;3.20;;;;;;;15.61;62.09;97153.47;5021322;28;20223;-70
2023/05/12 00:18:23;;;;;;;7.10;3.80;;;;;;;15.61;62.03;97157.94;5013491;28;20192;-69
2023/05/12 00:20:49;;;;;;;3.50;3.30;;;;;;;15.61;62.07;97148.19;5015449;28;20427;-70
2023/05/12 00:23:14;;;;;;;5.73;3.60;;;;;;;15.58;62.15;97145.91;5018164;28;20590;-70
2023/05/12 00:25:39;;;;;;;4.20;3.20;;;;;;;15.59;62.33;97149.38;4985876;28;20276;-69
2023/05/12 00:28:05;;;;;;;3.90;2.77;;;;;;;15.59;62.32;97136.19;5016762;28;20720;-70
2023/05/12 00:30:30;;;;;;;4.10;3.77;;;;;;;15.59;62.33;97144.09;5012905;28;20222;-69
2023/05/12 00:32:57;;;;;;;4.10;3.60;;;;;;;15.62;62.40;97141.09;5028164;28;20238;-71
2023/05/12 00:35:22;;;;;;;7.27;5.30;;;;;;;15.55;62.48;97140.19;5023595;28;20215;-71
2023/05/12 00:37:48;;;;;;;7.30;5.30;;;;;;;15.51;62.64;97137.91;5019462;28;20461;-70
2023/05/12 00:40:13;;;;;;;5.70;4.50;;;;;;;15.54;62.65;97144.66;5014941;28;20216;-71
2023/05/12 00:42:39;;;;;;;5.80;4.20;;;;;;;15.58;62.81;97140.63;5016129;28;20200;-70
2023/05/12 00:45:05;;;;;;;5.07;4.13;;;;;;;15.60;62.65;97135.19;5018297;28;20692;-70
2023/05/12 00:47:31;;;;;;;3.87;3.57;;;;;;;15.62;62.53;97144.53;5018642;28;20265;-69
2023/05/12 00:49:56;;;;;;;5.17;3.20;;;;;;;15.56;62.87;97139.19;5020746;28;20505;-71
2023/05/12 00:52:22;;;;;;;3.70;3.27;;;;;;;15.58;62.78;97137.97;5011213;28;20188;-71
2023/05/12 00:54:47;;;;;;;3.33;3.03;;;;;;;15.56;62.82;97136.53;5019611;28;20250;-70
2023/05/12 00:57:13;;;;;;;2.80;2.60;;;;;;;15.56;62.75;97142.66;5016338;28;20219;-70
2023/05/12 00:59:38;;;;;;;8.90;4.03;;;;;;;15.48;63.09;97143.59;5013705;28;20192;-70
2023/05/12 01:02:04;;;;;;;3.90;3.60;;;;;;;15.51;62.94;97140.53;5016882;28;20235;-71
2023/05/12 01:04:31;;;;;;;3.60;3.30;;;;;;;15.50;63.02;97140.75;5011921;28;20649;-71
2023/05/12 01:07:08;;;;;;;4.90;3.00;;;;;;;15.48;63.35;97138.31;5016484;28;20475;-70
2023/05/12 01:09:34;;;;;;;4.37;2.93;;;;;;;15.34;63.55;97141.78;5016596;28;20426;-70
2023/05/12 01:11:59;;;;;;;5.10;2.93;;;;;;;15.33;63.73;97140.13;5012388;28;21355;-71
2023/05/12 01:14:25;;;;;;;3.53;2.87;;;;;;;15.29;63.69;97136.22;5017859;28;20196;-71
2023/05/12 01:16:53;;;;;;;3.77;3.47;;;;;;;15.29;63.89;97139.69;5018398;28;20216;-69
2023/05/12 01:19:40;;;;;;;4.63;3.80;;;;;;;15.28;63.97;97142.50;5016067;28;20191;-72
2023/05/12 01:22:06;;;;;;;4.03;3.63;;;;;;;15.26;63.87;97129.50;5010115;28;20437;-71
2023/05/12 01:24:33;;;;;;;4.13;3.73;;;;;;;15.24;64.12;97142.06;5015208;28;20950;-70
2023/05/12 01:26:59;;;;;;;4.43;3.70;;;;;;;15.31;63.95;97134.22;5016249;28;20455;-71
2023/05/12 01:29:26;;;;;;;3.20;3.00;;;;;;;15.35;63.98;97143.41;5014517;28;20521;-71
2023/05/12 01:31:51;;;;;;;3.93;3.50;;;;;;;15.34;63.74;97141.78;5023457;28;20455;-71
2023/05/12 01:34:19;;;;;;;5.97;3.83;;;;;;;15.27;64.08;97140.84;5011919;28;20430;-70
2023/05/12 01:36:45;;;;;;;5.63;3.70;;;;;;;15.27;64.17;97135.59;5014526;28;20212;-72
2023/05/12 01:39:11;;;;;;;5.07;3.97;;;;;;;15.31;64.14;97136.84;5013225;28;20438;-70
2023/05/12 01:41:37;;;;;;;6.67;3.90;;;;;;;15.38;64.12;97142.22;5014736;28;20405;-69
2023/05/12 01:44:02;;;;;;;4.23;3.93;;;;;;;15.40;63.99;97133.09;5017784;28;20439;-70
2023/05/12 01:46:28;;;;;;;6.80;4.50;;;;;;;15.42;63.96;97140.88;5014959;28;20787;-70
2023/05/12 01:48:53;;;;;;;5.60;5.10;;;;;;;15.45;63.89;97136.03;5017547;28;20192;-69
2023/05/12 01:51:19;;;;;;;5.97;5.37;;;;;;;15.47;63.64;97138.47;5021090;28;20639;-71
2023/05/12 01:53:44;;;;;;;7.67;5.57;;;;;;;15.44;63.78;97133.53;5023099;28;20224;-71
2023/05/12 01:56:10;;;;;;;6.57;5.97;;;;;;;15.43;64.17;97138.03;5009850;28;20212;-71
2023/05/12 01:58:35;;;;;;;6.40;5.80;;;;;;;15.45;63.72;97137.81;5014968;28;20842;-70
2023/05/12 02:01:00;;;;;;;6.27;5.70;;;;;;;15.45;63.92;97133.38;5020740;28;20281;-70
2023/05/12 02:03:26;;;;;;;9.30;6.90;;;;;;;15.47;63.67;97138.47;5013966;28;20198;-69
2023/05/12 02:05:51;;;;;;;5.70;5.00;;;;;;;15.43;63.77;97135.38;5010606;28;20195;-71
2023/05/12 02:08:17;;;;;;;4.33;3.87;;;;;;;15.38;64.13;97143.03;5025584;28;20681;-71
2023/05/12 02:10:42;;;;;;;6.67;3.80;;;;;;;15.39;64.18;97138.59;5010328;28;20271;-70
2023/05/12 02:13:08;;;;;;;6.00;4.40;;;;;;;15.43;64.14;97143.31;5016689;28;20196;-71
2023/05/12 02:15:33;;;;;;;5.50;5.00;;;;;;;15.40;64.31;97132.31;5014218;28;20688;-71
2023/05/12 02:17:59;;;;;;;6.63;4.30;;;;;;;15.38;64.24;97135.09;4988976;28;20228;-70
2023/05/12 02:20:24;;;;;;;3.80;3.53;;;;;;;15.35;64.50;97132.84;5007857;28;20331;-70
2023/05/12 02:22:50;;;;;;;5.00;4.20;;;;;;;15.40;64.45;97137.59;5007219;28;20192;-71
2023/05/12 02:25:15;;;;;;;6.13;5.20;;;;;;;15.41;64.36;97136.59;5010554;28;20405;-71
2023/05/12 02:27:41;;;;;;;6.03;5.53;;;;;;;15.44;64.61;97137.03;5007297;28;20243;-70
2023/05/12 02:30:07;;;;;;;6.33;5.73;;;;;;;15.45;64.09;97132.53;5014114;28;20735;-71
2023/05/12 02:32:32;;;;;;;6.70;6.10;;;;;;;15.46;63.99;97135.03;5007604;28;20235;-72
2023/05/12 02:34:58;;;;;;;7.17;6.30;;;;;;;15.48;63.94;97134.81;5007689;28;20506;-71
2023/05/12 02:37:23;;;;;;;7.10;6.50;;;;;;;15.42;63.97;97138.22;5008028;28;20208;-71
2023/05/12 02:39:49;;;;;;;7.13;6.50;;;;;;;15.47;64.03;97131.38;5009014;28;20196;-70
2023/05/12 02:42:14;;;;;;;9.30;6.70;;;;;;;15.48;63.84;97130.38;5010686;28;20189;-71
2023/05/12 02:44:40;;;;;;;9.13;8.13;;;;;;;15.49;63.50;97126.72;5015566;28;20187;-70
2023/05/12 02:47:05;;;;;;;9.23;7.40;;;;;;;15.49;63.68;97131.19;5011811;28;20324;-71
2023/05/12 02:49:31;;;;;;;7.83;7.03;;;;;;;15.50;63.71;97130.19;5008738;28;20708;-73
2023/05/12 02:51:56;;;;;;;8.37;7.47;;;;;;;15.49;63.62;97129.38;5020589;28;20188;-71
2023/05/12 02:54:22;;;;;;;8.90;8.00;;;;;;;15.46;63.73;97135.03;5011565;28;20185;-72
2023/05/12 02:56:47;;;;;;;9.63;7.73;;;;;;;15.47;63.90;97126.09;5010323;28;20216;-70
2023/05/12 02:59:13;;;;;;;9.13;7.60;;;;;;;15.40;64.00;97125.19;5011767;28;20674;-71
2023/05/12 03:01:38;;;;;;;8.23;7.00;;;;;;;15.40;63.87;97130.47;5010063;28;20267;-71
2023/05/12 03:04:04;;;;;;;7.00;6.40;;;;;;;15.33;64.43;97132.22;5011851;28;20279;-71
2023/05/12 03:06:29;;;;;;;7.20;6.47;;;;;;;15.41;64.11;97131.31;5018971;28;20214;-70
2023/05/12 03:08:55;;;;;;;6.80;6.10;;;;;;;15.38;64.19;97131.66;5011467;28;20192;-71
2023/05/12 03:11:21;;;;;;;12.33;5.67;;;;;;;15.29;64.38;97129.13;5011067;28;20619;-70
2023/05/12 03:13:47;;;;;;;6.20;5.60;;;;;;;15.26;64.54;97128.66;5009036;28;20784;-71
2023/05/12 03:16:12;;;;;;;6.30;5.73;;;;;;;15.25;64.54;97132.34;5021624;28;20483;-71
2023/05/12 03:18:38;;;;;;;6.77;5.87;;;;;;;15.25;64.76;97134.97;5012485;28;20188;-70
2023/05/12 03:21:04;;;;;;;6.70;6.10;;;;;;;15.24;64.72;97130.69;5004385;28;20547;-70
2023/05/12 03:23:29;;;;;;;7.53;6.37;;;;;;;15.26;64.63;97134.78;5011142;28;20184;-69
2023/05/12 03:25:54;;;;;;;6.70;6.10;;;;;;;15.25;64.75;97132.34;5010683;28;20786;-69
2023/05/12 03:28:21;;;;;;;9.83;5.80;;;;;;;15.13;65.23;97140.69;5010615;28;20179;-71
2023/05/12 03:30:47;;;;;;;5.90;5.40;;;;;;;15.11;65.35;97150.63;5009257;28;20184;-71
2023/05/12 03:33:12;;;;;;;7.03;6.37;;;;;;;15.13;65.34;97140.69;5016016;28;20964;-71
2023/05/12 03:35:38;;;;;;;8.50;6.90;;;;;;;15.14;65.27;97147.59;5015001;28;20254;-71
2023/05/12 03:38:03;;;;;;;7.63;6.60;;;;;;;15.20;65.22;97138.97;5010371;28;20266;-71
2023/05/12 03:40:29;;;;;;;7.57;6.87;;;;;;;15.23;65.28;97135.13;5018660;28;20192;-69
2023/05/12 03:42:55;;;;;;;9.37;8.47;;;;;;;15.30;65.10;97129.94;5010686;28;20188;-69
2023/05/12 03:45:20;;;;;;;9.63;8.63;;;;;;;15.29;64.88;97128.31;5007216;28;20673;-71
2023/05/12 03:47:46;;;;;;;9.33;8.43;;;;;;;15.27;64.91;97130.31;5009621;28;20721;-72
2023/05/12 03:50:11;;;;;;;8.80;8.00;;;;;;;15.28;65.03;97129.31;5005491;28;20196;-71
2023/05/12 03:52:39;;;;;;;10.07;9.07;;;;;;;15.31;64.99;97128.94;5009193;28;20286;-70
2023/05/12 03:55:05;;;;;;;10.40;9.30;;;;;;;15.28;64.86;97132.78;5009963;28;20235;-71
2023/05/12 03:57:31;;;;;;;12.63;9.97;;;;;;;15.29;65.00;97129.13;5008873;28;20556;-69
2023/05/12 03:59:57;;;;;;;10.27;8.47;;;;;;;15.27;65.03;97128.50;5004891;28;20443;-70
2023/05/12 04:02:22;;;;;;;10.97;9.80;;;;;;;15.35;65.16;97124.94;5008208;28;20192;-71
2023/05/12 04:04:47;;;;;;;11.37;9.63;;;;;;;15.38;64.78;97119.25;5008680;28;20551;-71
2023/05/12 04:07:13;;;;;;;12.47;9.27;;;;;;;15.36;64.55;97121.28;5009562;28;20208;-71
2023/05/12 04:09:38;;;;;;;11.57;10.37;;;;;;;15.38;64.69;97116.63;5006604;28;20199;-71
2023/05/12 04:12:04;;;;;;;11.27;10.17;;;;;;;15.39;64.63;97126.19;4989712;28;20279;-70
2023/05/12 04:14:30;;;;;;;11.13;10.00;;;;;;;15.39;64.61;97123.53;5018983;28;20196;-72
2023/05/12 04:16:57;;;;;;;11.03;9.93;;;;;;;15.36;64.65;97122.09;5007924;28;20246;-69
2023/05/12 04:19:22;;;;;;;13.63;10.03;;;;;;;15.36;64.83;97126.56;5009276;28;20569;-71
2023/05/12 04:21:48;;;;;;;11.37;10.27;;;;;;;15.39;64.74;97128.03;5014228;28;20451;-70
2023/05/12 04:24:13;;;;;;;10.87;9.77;;;;;;;15.40;64.83;97130.47;5015681;28;20231;-70
2023/05/12 04:26:39;;;;;;;12.57;9.67;;;;;;;15.38;65.03;97134.31;5007885;28;20247;-70
2023/05/12 04:29:04;;;;;;;11.23;10.07;;;;;;;15.26;65.05;97123.38;5008973;28;20192;-70
2023/05/12 04:31:30;;;;;;;15.13;10.20;;;;;;;15.25;65.22;97129.69;5008623;28;20275;-72
2023/05/12 04:33:55;;;;;;;12.33;10.13;;;;;;;15.27;65.30;97138.22;5008450;28;20215;-70
2023/05/12 04:36:21;;;;;;;12.57;10.50;;;;;;;15.29;65.45;97138.84;5007027;28;20212;-70
2023/05/12 04:38:47;;;;;;;11.27;10.07;;;;;;;15.30;65.38;97138.69;5008325;28;20211;-71
2023/05/12 04:41:12;;;;;;;11.80;10.47;;;;;;;15.30;65.58;97137.84;5008887;28;20983;-71
2023/05/12 04:43:38;;;;;;;13.67;10.47;;;;;;;15.24;65.68;97128.84;5007952;28;20204;-72
2023/05/12 04:46:03;;;;;;;11.30;10.13;;;;;;;15.19;65.61;97141.78;5005784;28;20225;-70
2023/05/12 04:48:29;;;;;;;11.77;10.57;;;;;;;15.24;65.63;97151.81;5012579;28;20561;-70
2023/05/12 04:50:55;;;;;;;12.13;10.70;;;;;;;15.21;65.61;97147.69;5009905;28;20237;-71
2023/05/12 04:53:21;;;;;;;13.33;10.80;;;;;;;15.25;65.38;97150.81;5006879;28;20227;-69
2023/05/12 04:55:46;;;;;;;10.97;9.87;;;;;;;15.20;65.45;97152.16;5007313;28;20888;-71
2023/05/12 04:58:12;;;;;;;11.00;9.90;;;;;;;15.26;65.35;97155.06;5023288;28;20199;-71
2023/05/12 05:00:38;;;;;;;12.27;10.67;;;;;;;15.28;65.12;97148.63;5007214;28;20215;-71
2023/05/12 05:03:04;;;;;;;11.40;10.30;;;;;;;15.34;65.05;97147.06;5008062;28;20471;-72
2023/05/12 05:05:29;;;;;;;10.57;9.47;;;;;;;15.39;64.96;97147.31;5003065;28;20195;-71
2023/05/12 05:07:55;;;;;;;11.27;10.07;;;;;;;15.42;64.86;97151.44;5015655;28;20455;-71
2023/05/12 05:10:20;;;;;;;11.40;10.20;;;;;;;15.40;64.83;97154.22;5008334;28;20196;-71
2023/05/12 05:12:46;;;;;;;11.07;9.90;;;;;;;15.36;64.89;97151.16;5007371;28;20801;-69
2023/05/12 05:15:11;;;;;;;11.10;9.43;;;;;;;15.35;64.96;97156.63;5010897;28;20740;-71
2023/05/12 05:17:37;;;;;;;11.27;10.17;;;;;;;15.32;64.76;97151.69;5011178;28;20211;-72
2023/05/12 05:20:02;;;;;;;13.10;10.13;;;;;;;15.34;64.80;97152.34;5006834;28;20196;-73
2023/05/12 05:22:28;;;;;;;11.13;10.03;;;;;;;15.38;64.65;97152.78;5012861;28;20681;-70
2023/05/12 05:24:53;;;;;;;14.20;10.47;;;;;;;15.42;64.58;97160.16;5008299;28;20653;-72
2023/05/12 05:27:19;;;;;;;11.33;9.40;;;;;;;15.47;64.71;97164.88;5014261;28;20208;-72
2023/05/12 05:29:45;;;;;;;12.50;11.30;;;;;;;15.44;64.53;97166.06;5005898;28;20188;-71
2023/05/12 05:32:10;;;;;;;11.23;10.13;;;;;;;15.44;64.46;97163.44;5007611;28;20231;-71
2023/05/12 05:34:36;;;;;;;11.87;10.13;;;;;;;15.48;64.45;97170.00;5037666;28;20219;-71
2023/05/12 05:37:02;;;;;;;13.43;10.43;;;;;;;15.52;64.42;97171.25;5031247;28;20298;-70
2023/05/12 05:39:29;;;;;;;12.00;10.80;;;;;;;15.51;64.30;97169.59;5011383;28;20200;-72
2023/05/12 05:41:56;;;;;;;12.33;11.13;;;;;;;15.53;64.11;97177.34;5005656;28;20431;-71
2023/05/12 05:44:21;;;;;;;13.63;10.63;;;;;;;15.58;64.00;97179.44;5008752;28;21008;-71
2023/05/12 05:46:47;;;;;;;14.20;11.20;;;;;;;15.61;63.64;97184.38;5005403;28;20589;-70
2023/05/12 05:49:12;;;;;;;13.33;9.37;;;;;;;15.64;63.59;97178.69;5011588;28;20193;-72
2023/05/12 05:51:38;;;;;;;11.10;9.70;;;;;;;15.68;63.54;97179.16;5005154;28;20236;-70
2023/05/12 05:54:03;;;;;;;12.13;10.77;;;;;;;15.72;63.20;97180.41;5014770;28;20200;-69
2023/05/12 05:56:29;;;;;;;12.20;11.00;;;;;;;15.76;63.23;97176.41;5009659;28;20307;-71
2023/05/12 05:58:55;;;;;;;13.43;12.03;;;;;;;15.76;63.13;97179.84;5004068;28;20736;-70
2023/05/12 06:01:21;;;;;;;12.73;11.40;;;;;;;15.78;62.93;97177.84;5006453;28;20196;-72
2023/05/12 06:03:46;;;;;;;13.07;11.73;;;;;;;15.80;63.23;97175.03;5006517;28;20666;-69
2023/05/12 06:06:12;;;;;;;12.60;11.30;;;;;;;15.84;62.77;97183.41;5013858;28;20212;-69
2023/05/12 06:08:37;;;;;;;11.70;10.27;;;;;;;15.86;62.34;97186.72;5007208;28;20808;-71
2023/05/12 06:11:03;;;;;;;11.63;10.43;;;;;;;15.89;62.41;97188.94;5007397;28;20196;-71
2023/05/12 06:13:28;;;;;;;11.53;10.10;;;;;;;15.89;62.82;97187.16;5012026;28;20266;-71
2023/05/12 06:15:54;;;;;;;11.70;10.53;;;;;;;15.94;62.82;97183.94;5016712;28;20598;-71
2023/05/12 06:18:21;;;;;;;20.10;10.30;;;;;;;16.02;62.91;97190.94;5016107;28;20200;-70
2023/05/12 06:20:46;;;;;;;11.37;10.27;;;;;;;16.08;62.37;97190.16;5010889;28;20196;-69
2023/05/12 06:23:12;;;;;;;10.47;9.47;;;;;;;16.10;61.85;97191.66;5006299;28;20999;-71
2023/05/12 06:25:37;;;;;;;11.67;10.47;;;;;;;16.15;61.84;97190.25;5017583;28;20230;-70
2023/05/12 06:28:03;;;;;;;14.13;9.87;;;;;;;16.16;61.59;97197.16;5003137;28;20212;-71
2023/05/12 06:30:28;;;;;;;12.70;11.40;;;;;;;16.22;61.95;97199.06;5012097;28;20804;-71
2023/05/12 06:32:54;;;;;;;10.10;9.10;;;;;;;16.23;61.36;97190.13;5017529;28;20227;-71
2023/05/12 06:35:20;;;;;;;12.27;8.50;;;;;;;16.25;61.11;97193.41;5014618;28;20231;-70
2023/05/12 06:37:49;;;;;;;10.33;9.27;;;;;;;16.31;60.87;97199.78;5009762;28;21147;-70
2023/05/12 06:40:15;;;;;;;9.67;8.83;;;;;;;16.35;61.19;97196.56;5012882;28;20224;-72
2023/05/12 06:42:41;;;;;;;9.03;8.23;;;;;;;16.38;61.18;97196.16;5026438;28;20445;-72
2023/05/12 06:45:07;;;;;;;9.83;8.87;;;;;;;16.40;60.94;97194.16;5015011;28;20427;-70
2023/05/12 06:47:33;;;;;;;9.10;8.20;;;;;;;16.43;60.56;97199.06;5014962;28;20334;-73
2023/05/12 06:49:58;;;;;;;9.37;8.43;;;;;;;16.45;60.45;97200.69;5015637;28;20466;-70
2023/05/12 06:52:23;;;;;;;8.80;7.90;;;;;;;16.47;60.01;97194.22;5010326;28;20667;-71
2023/05/12 06:54:49;;;;;;;8.80;7.90;;;;;;;16.50;60.11;97198.31;5010284;28;20212;-70
2023/05/12 06:57:15;;;;;;;10.20;7.70;;;;;;;16.52;60.27;97197.09;5011122;28;20540;-71
2023/05/12 06:59:40;;;;;;;9.50;7.77;;;;;;;16.54;60.38;97199.56;5011823;28;20446;-69
2023/05/12 07:02:06;;;;;;;8.53;7.67;;;;;;;16.54;60.44;97205.69;5013710;28;20274;-72
2023/05/12 07:04:31;;;;;;;11.30;6.97;;;;;;;16.55;60.59;97199.38;5016042;28;20235;-71
2023/05/12 07:06:57;;;;;;;7.10;6.50;;;;;;;16.56;60.71;97197.53;5012446;28;20215;-71
2023/05/12 07:09:22;;;;;;;7.77;6.97;;;;;;;16.51;59.53;97205.22;5016842;28;20657;-72
2023/05/12 07:11:48;;;;;;;7.07;6.17;;;;;;;16.52;59.82;97201.56;5009635;28;20236;-70
2023/05/12 07:14:13;;;;;;;8.70;6.77;;;;;;;16.53;59.76;97206.69;5002765;28;20196;-70
2023/05/12 07:16:39;;;;;;;7.03;6.43;;;;;;;16.57;59.17;97197.34;4993045;28;20295;-72
2023/05/12 07:19:07;;;;;;;7.77;6.87;;;;;;;16.59;59.40;97199.81;5019828;28;20313;-71
2023/05/12 07:21:33;;;;;;;7.30;6.70;;;;;;;16.61;59.44;97200.44;5009637;28;20283;-72
2023/05/12 07:23:58;;;;;;;7.43;6.33;;;;;;;16.67;59.64;97199.66;5012541;28;20939;-72
2023/05/12 07:26:24;;;;;;;7.83;7.13;;;;;;;16.73;59.78;97198.09;5010581;28;20208;-72
2023/05/12 07:28:49;;;;;;;11.57;7.20;;;;;;;16.78;60.22;97194.84;5010159;28;20200;-71
2023/05/12 07:31:15;;;;;;;7.87;6.50;;;;;;;16.87;60.11;97196.38;5012681;28;20247;-72
2023/05/12 07:33:40;;;;;;;8.47;7.03;;;;;;;16.95;59.78;97190.94;5016191;28;20255;-71
2023/05/12 07:36:07;;;;;;;12.43;6.40;;;;;;;17.08;59.95;97194.69;5010644;28;20252;-71
2023/05/12 07:38:33;;;;;;;7.40;6.70;;;;;;;17.17;59.21;97194.34;5015542;28;20193;-69
2023/05/12 07:40:59;;;;;;;6.97;6.20;;;;;;;17.20;58.72;97193.94;5009337;28;20825;-70
2023/05/12 07:43:24;;;;;;;6.53;5.83;;;;;;;17.30;58.09;97192.78;5041939;28;20561;-71
2023/05/12 07:45:50;;;;;;;6.63;5.93;;;;;;;17.37;57.83;97198.13;5012871;28;20184;-70
2023/05/12 07:48:15;;;;;;;6.33;5.73;;;;;;;17.40;57.22;97192.41;5014607;28;20647;-70
2023/05/12 07:50:41;;;;;;;7.93;5.90;;;;;;;17.43;57.39;97197.34;5010307;28;20192;-72
2023/05/12 07:53:06;;;;;;;6.10;5.60;;;;;;;17.41;57.05;97194.06;5012379;28;20292;-71
2023/05/12 07:55:32;;;;;;;8.90;6.23;;;;;;;17.40;57.19;97192.41;5004083;28;20216;-70
2023/05/12 07:57:57;;;;;;;7.80;6.93;;;;;;;17.37;57.24;97190.19;5009306;28;20228;-71
2023/05/12 08:00:23;;;;;;;7.43;6.40;;;;;;;17.32;57.26;97188.94;5010582;28;20193;-71
2023/05/12 08:02:48;;;;;;;7.23;5.73;;;;;;;17.38;57.34;97194.47;5014459;28;20192;-68
2023/05/12 08:05:14;;;;;;;6.20;5.60;;;;;;;17.43;57.26;97197.34;5011854;28;20220;-70
2023/05/12 08:07:42;;;;;;;5.57;5.07;;;;;;;17.52;57.41;97192.69;5008788;28;20298;-71
2023/05/12 08:10:08;;;;;;;5.63;5.13;;;;;;;17.57;56.98;97191.09;5009367;28;20864;-71
2023/05/12 08:12:34;;;;;;;8.40;6.07;;;;;;;17.47;55.99;97203.88;5009950;28;20431;-71
2023/05/12 08:14:59;;;;;;;6.50;5.90;;;;;;;17.43;55.61;97199.97;5014832;28;20470;-70
2023/05/12 08:17:25;;;;;;;6.57;5.57;;;;;;;17.39;55.90;97194.25;5044112;28;20274;-70
2023/05/12 08:19:50;;;;;;;9.90;5.63;;;;;;;17.53;55.99;97197.78;5043391;28;20188;-69
2023/05/12 08:22:16;;;;;;;8.40;5.53;;;;;;;17.71;55.57;97189.28;5010059;28;20188;-71
2023/05/12 08:24:41;;;;;;;6.97;4.60;;;;;;;17.88;55.35;97192.44;5012884;28;20276;-71
2023/05/12 08:27:07;;;;;;;5.10;4.63;;;;;;;18.01;54.88;97185.56;5017324;28;20219;-70
2023/05/12 08:29:33;;;;;;;4.80;4.40;;;;;;;18.09;54.32;97182.72;5009799;28;20267;-71
2023/05/12 08:31:58;;;;;;;5.00;4.03;;;;;;;18.10;53.59;97187.00;5016437;28;20195;-72
2023/05/12 08:34:24;;;;;;;4.77;4.10;;;;;;;18.04;53.34;97187.78;5020038;28;20196;-71
2023/05/12 08:36:52;;;;;;;4.13;3.73;;;;;;;17.99;53.59;97192.91;5010065;28;20690;-70
2023/05/12 08:39:18;;;;;;;5.97;4.50;;;;;;;17.95;53.87;97190.59;5009629;28;20246;-69
2023/05/12 08:42:01;;;;;;;7.67;4.30;;;;;;;17.90;53.15;97193.03;5009467;28;20443;-71
2023/05/12 08:44:27;;;;;;;5.97;4.07;;;;;;;17.87;53.99;97193.44;5011089;28;20188;-71
2023/05/12 08:46:56;;;;;;;4.50;4.00;;;;;;;17.80;54.20;97198.72;5017387;28;20451;-70
2023/05/12 08:49:23;;;;;;;5.00;4.60;;;;;;;17.73;53.84;97202.38;5014638;28;20545;-72
2023/05/12 08:51:52;;;;;;;5.20;4.70;;;;;;;17.63;54.37;97198.25;5007788;28;20428;-69
2023/05/12 08:54:18;;;;;;;4.97;4.17;;;;;;;17.62;54.59;97201.09;5017060;28;20522;-72
2023/05/12 08:56:44;;;;;;;4.70;4.17;;;;;;;17.64;55.00;97205.16;5018724;28;20479;-71
2023/05/12 08:59:10;;;;;;;5.13;4.23;;;;;;;17.64;54.71;97199.88;5008044;28;20450;-71
2023/05/12 09:01:35;;;;;;;5.10;4.70;;;;;;;17.65;54.59;97201.50;5009139;28;20442;-70
2023/05/12 09:04:03;;;;;;;5.00;4.03;;;;;;;17.70;54.76;97206.25;5044891;28;20228;-70
2023/05/12 09:06:28;;;;;;;4.40;4.00;;;;;;;17.77;54.70;97203.59;5016281;28;20310;-72
2023/05/12 09:08:54;;;;;;;4.57;4.17;;;;;;;17.78;54.86;97206.06;5008848;28;20450;-71
2023/05/12 09:11:22;;;;;;;4.97;4.50;;;;;;;17.81;54.33;97194.22;5007521;28;20649;-70
2023/05/12 09:14:03;;;;;;;4.57;4.17;;;;;;;17.79;53.79;97198.91;5007702;28;20223;-70
2023/05/12 09:16:31;;;;;;;4.30;3.90;;;;;;;17.77;53.75;97203.59;5008454;28;20463;-70
2023/05/12 09:19:00;;;;;;;4.60;4.20;;;;;;;17.76;54.22;97199.31;5016627;28;20442;-70
2023/05/12 09:21:26;;;;;;;16.37;13.30;;;;;;;17.76;54.63;97204.63;5013183;28;20522;-72
2023/05/12 09:23:51;;;;;;;10.23;9.20;;;;;;;17.78;54.66;97206.06;5021741;28;20522;-70
2023/05/12 09:26:16;;;;;;;10.57;9.13;;;;;;;17.83;54.80;97202.81;5011158;28;20283;-69
2023/05/12 09:28:42;;;;;;;5.43;4.17;;;;;;;17.86;53.64;97207.72;5015862;28;20238;-71
2023/05/12 09:31:18;;;;;;;3.70;3.40;;;;;;;17.86;53.76;97202.41;5010904;28;20203;-70
2023/05/12 09:33:44;;;;;;;4.13;3.57;;;;;;;17.93;53.85;97197.94;5016934;28;20442;-71
2023/05/12 09:36:09;;;;;;;4.57;3.87;;;;;;;17.99;53.90;97201.66;5012921;28;20474;-71
2023/05/12 09:38:35;;;;;;;6.93;4.00;;;;;;;18.10;53.39;97202.91;5012519;28;20223;-70
2023/05/12 09:41:00;;;;;;;4.40;3.90;;;;;;;18.20;52.77;97199.88;5010177;28;20200;-71
2023/05/12 09:43:26;;;;;;;3.90;3.00;;;;;;;18.31;52.64;97201.94;5013299;28;20245;-72
2023/05/12 09:45:51;;;;;;;3.40;2.93;;;;;;;18.44;52.27;97195.81;5019554;28;20176;-69
2023/05/12 09:48:17;;;;;;;3.23;3.03;;;;;;;18.55;51.81;97205.03;5014896;28;20287;-71
2023/05/12 09:50:49;;;;;;;3.67;3.37;;;;;;;18.68;51.65;97204.19;5018223;28;20191;-70
2023/05/12 09:53:19;;;;;;;2.80;2.60;;;;;;;18.80;51.36;97199.91;5012713;28;20271;-71
2023/05/12 09:55:48;;;;;;;4.00;2.77;;;;;;;18.92;50.69;97199.28;5017359;28;20480;-70
2023/05/12 09:58:15;;;;;;;6.43;2.60;;;;;;;19.06;50.46;97203.59;5018442;28;20522;-71
2023/05/12 10:00:42;;;;;;;5.50;4.87;;;;;;;19.18;50.09;97195.81;5009104;28;20442;-71
2023/05/12 10:03:13;;;;;;;4.00;3.70;;;;;;;19.27;49.90;97193.75;5016378;28;20923;-71
2023/05/12 10:05:57;;;;;;;3.23;3.03;;;;;;;19.37;49.35;97194.13;5011034;28;20497;-72
2023/05/12 10:08:29;;;;;;;8.13;3.33;;;;;;;19.46;48.81;97190.22;5016681;28;20427;-71
2023/05/12 10:10:55;;;;;;;4.13;3.20;;;;;;;19.51;48.83;97197.56;5011930;28;20420;-71
2023/05/12 10:13:21;;;;;;;3.37;3.17;;;;;;;19.47;48.82;97199.81;5016006;28;20510;-71
2023/05/12 10:15:47;;;;;;;3.90;3.37;;;;;;;19.48;48.63;97198.81;5016021;28;20583;-71
2023/05/12 10:18:14;;;;;;;6.37;3.90;;;;;;;19.44;48.69;97202.88;5021805;28;20462;-71
2023/05/12 10:20:42;;;;;;;4.23;3.93;;;;;;;19.44;48.65;97197.56;5011276;28;20451;-70
2023/05/12 10:23:08;;;;;;;3.73;3.43;;;;;;;19.41;48.44;97199.84;5007343;28;20458;-70
2023/05/12 10:25:34;;;;;;;3.93;3.63;;;;;;;19.38;48.72;97198.44;5019563;28;20912;-71
2023/05/12 10:28:00;;;;;;;3.73;3.43;;;;;;;19.40;48.39;97196.38;5010076;28;20459;-71
2023/05/12 10:30:26;;;;;;;4.13;3.60;;;;;;;19.42;48.74;97199.63;5009204;28;20192;-70
2023/05/12 10:32:51;;;;;;;3.57;3.27;;;;;;;19.46;47.90;97198.19;5012815;28;20458;-70
2023/05/12 10:35:17;;;;;;;3.20;3.00;;;;;;;19.55;48.09;97197.94;5015277;28;20215;-71
2023/05/12 10:37:43;;;;;;;4.10;2.83;;;;;;;19.61;47.66;97197.91;5016239;28;20207;-71
2023/05/12 10:40:10;;;;;;;3.50;2.93;;;;;;;19.67;47.68;97196.25;5011022;28;20196;-70
2023/05/12 10:42:41;;;;;;;3.10;2.90;;;;;;;19.75;47.31;97190.72;5015968;28;20211;-71
2023/05/12 10:45:17;;;;;;;3.30;3.10;;;;;;;19.81;47.50;97194.38;5010690;28;20986;-71
2023/05/12 10:47:46;;;;;;;3.47;3.17;;;;;;;19.84;47.56;97198.44;5008031;28;20458;-70
2023/05/12 10:50:15;;;;;;;3.70;3.40;;;;;;;19.86;47.51;97188.41;5013959;28;20459;-71
2023/05/12 10:52:52;;;;;;;3.87;2.40;;;;;;;19.84;47.21;97182.50;5009105;28;20427;-71
2023/05/12 10:55:29;;;;;;;4.00;3.60;;;;;;;19.83;46.96;97183.53;5006275;28;20474;-70
2023/05/12 10:58:09;;;;;;;3.57;3.37;;;;;;;19.78;47.19;97184.16;5007422;28;20455;-69
2023/05/12 11:00:45;;;;;;;4.10;2.63;;;;;;;19.75;46.73;97185.41;5009831;28;20448;-70
2023/05/12 11:03:15;;;;;;;2.90;2.50;;;;;;;19.67;46.78;97196.25;5019606;28;20979;-70
2023/05/12 11:05:42;;;;;;;3.17;2.87;;;;;;;19.58;47.48;97198.38;5019435;28;20440;-70
2023/05/12 11:08:07;;;;;;;3.03;2.73;;;;;;;19.53;47.84;97194.72;5016028;28;20971;-69
2023/05/12 11:10:33;;;;;;;3.47;2.90;;;;;;;19.41;47.99;97203.31;5021457;28;20437;-71
2023/05/12 11:12:59;;;;;;;4.10;3.80;;;;;;;19.34;49.03;97199.84;5015454;28;20196;-72
2023/05/12 11:15:24;;;;;;;3.73;3.53;;;;;;;19.11;50.01;97208.28;5011482;28;20214;-71
2023/05/12 11:17:51;;;;;;;3.73;3.00;;;;;;;18.93;50.53;97206.22;5018841;28;21066;-71
2023/05/12 11:20:23;;;;;;;3.60;3.30;;;;;;;18.82;51.52;97216.44;5022291;28;20227;-69
2023/05/12 11:22:49;;;;;;;7.80;4.00;;;;;;;18.76;52.30;97217.28;5010017;28;20485;-72
2023/05/12 11:25:15;;;;;;;4.97;3.93;;;;;;;18.63;52.53;97211.97;5014530;28;20526;-71